Time;durP1;ratioP1;P1;durP2;ratioP2;P2;SDS_P1;SDS_P2;PMS_P1;PMS_P2;Temp;Humidity;BMP_temperature;BMP_pressure;BME280_temperature;BME280_humidity;BME280_pressure;Samples;Min_cycle;Max_cycle;Signal;HPM_P1;HPM_P2
2022/08/21 00:01:16;;;;;;;;;;;16.20;99.90;;;;;;4988238;28;19916;-79
2022/08/21 00:03:42;;;;;;;;;;;16.20;99.90;;;;;;4982269;28;19917;-80
2022/08/21 00:06:08;;;;;;;;;;;16.20;99.90;;;;;;4975560;28;19921;-79
2022/08/21 00:08:33;;;;;;;;;;;16.20;99.90;;;;;;4986979;28;19913;-80
2022/08/21 00:10:59;;;;;;;;;;;16.20;99.90;;;;;;4971617;28;19937;-80
2022/08/21 00:13:25;;;;;;;;;;;16.20;99.90;;;;;;4977822;28;20397;-79
2022/08/21 00:15:51;;;;;;;;;;;16.20;99.90;;;;;;4987468;28;19997;-80
2022/08/21 00:18:17;;;;;;;;;;;16.20;99.90;;;;;;4992354;28;19914;-79
2022/08/21 00:20:43;;;;;;;;;;;16.20;99.90;;;;;;4951466;28;19917;-79
2022/08/21 00:23:09;;;;;;;;;;;16.20;99.90;;;;;;4993559;28;19906;-80
2022/08/21 00:25:35;;;;;;;;;;;16.20;99.90;;;;;;4977740;28;20305;-80
2022/08/21 00:28:01;;;;;;;;;;;16.20;99.90;;;;;;4981781;28;20359;-80
2022/08/21 00:30:28;;;;;;;;;;;16.20;99.90;;;;;;4984076;28;20432;-78
2022/08/21 00:32:55;;;;;;;;;;;16.20;99.90;;;;;;4958637;28;19914;-79
2022/08/21 00:35:23;;;;;;;;;;;16.20;99.90;;;;;;4966099;28;19910;-79
2022/08/21 00:37:49;;;;;;;;;;;16.20;99.90;;;;;;4958923;28;20306;-80
2022/08/21 00:40:16;;;;;;;;;;;16.20;99.90;;;;;;4943968;28;19916;-79
2022/08/21 00:42:42;;;;;;;;;;;16.20;99.90;;;;;;4986002;28;19976;-80
2022/08/21 00:45:08;;;;;;;;;;;16.30;99.90;;;;;;4986699;28;20015;-81
2022/08/21 00:47:33;;;;;;;;;;;16.20;99.90;;;;;;4979508;28;19936;-80
2022/08/21 00:49:59;;;;;;;;;;;16.30;99.90;;;;;;4980122;28;19917;-79
2022/08/21 00:52:28;;;;;;;;;;;16.20;99.90;;;;;;4974411;23;19922;-81
2022/08/21 00:54:54;;;;;;;;;;;16.20;99.90;;;;;;4959815;29;19942;-81
2022/08/21 00:57:23;;;;;;;;;;;16.20;99.90;;;;;;4964245;28;20043;-80
2022/08/21 00:59:51;;;;;;;;;;;16.20;99.90;;;;;;4964071;28;19910;-77
2022/08/21 01:02:17;;;;;;;;;;;16.20;99.90;;;;;;4953009;28;19921;-81
2022/08/21 01:04:43;;;;;;;;;;;16.20;99.90;;;;;;4948699;29;19926;-80
2022/08/21 01:07:08;;;;;;;;;;;16.20;99.90;;;;;;4943249;29;19918;-80
2022/08/21 01:09:34;;;;;;;;;;;16.20;99.90;;;;;;4920620;29;19911;-82
2022/08/21 01:12:00;;;;;;;;;;;16.20;99.90;;;;;;4936034;29;19933;-80
2022/08/21 01:14:26;;;;;;;;;;;16.20;99.90;;;;;;4930864;29;20694;-79
2022/08/21 01:16:52;;;;;;;;;;;16.20;99.90;;;;;;4929725;29;19971;-81
2022/08/21 01:19:19;;;;;;;;;;;16.20;99.90;;;;;;4938197;29;19921;-80
2022/08/21 01:21:45;;;;;;;;;;;16.20;99.90;;;;;;4941770;29;19926;-80
2022/08/21 01:24:11;;;;;;;;;;;16.20;99.90;;;;;;4939287;29;19919;-80
2022/08/21 01:26:37;;;;;;;;;;;16.20;99.90;;;;;;4942445;29;19910;-80
2022/08/21 01:29:09;;;;;;;;;;;16.20;99.90;;;;;;4934848;29;19915;-79
2022/08/21 01:31:36;;;;;;;;;;;16.20;99.90;;;;;;4941236;29;19993;-81
2022/08/21 01:34:02;;;;;;;;;;;16.20;99.90;;;;;;4928722;29;19907;-79
2022/08/21 01:36:28;;;;;;;;;;;16.20;99.90;;;;;;4935258;29;19917;-80
2022/08/21 01:38:54;;;;;;;;;;;16.10;99.90;;;;;;4930974;29;19915;-79
2022/08/21 01:41:20;;;;;;;;;;;16.10;99.90;;;;;;4935352;29;20436;-78
2022/08/21 01:43:46;;;;;;;;;;;16.10;99.90;;;;;;4921297;29;19916;-79
2022/08/21 01:46:12;;;;;;;;;;;16.10;99.90;;;;;;4923902;29;19921;-80
2022/08/21 01:48:38;;;;;;;;;;;16.10;99.90;;;;;;4931982;29;19910;-80
2022/08/21 01:51:04;;;;;;;;;;;16.10;99.90;;;;;;4933688;29;19918;-80
2022/08/21 01:53:30;;;;;;;;;;;16.10;99.90;;;;;;4936859;29;19958;-78
2022/08/21 01:55:56;;;;;;;;;;;16.10;99.90;;;;;;4932710;29;19915;-79
2022/08/21 01:58:21;;;;;;;;;;;16.20;99.90;;;;;;4922489;29;20408;-78
2022/08/21 02:00:48;;;;;;;;;;;16.10;99.90;;;;;;4921796;29;20366;-79
2022/08/21 02:03:19;;;;;;;;;;;16.10;99.90;;;;;;4927700;29;19914;-78
2022/08/21 02:05:45;;;;;;;;;;;16.10;99.90;;;;;;4905338;29;19923;-79
2022/08/21 02:08:11;;;;;;;;;;;16.20;99.90;;;;;;4923622;29;19911;-79
2022/08/21 02:10:36;;;;;;;;;;;16.20;99.90;;;;;;4924512;29;19918;-78
2022/08/21 02:13:02;;;;;;;;;;;16.10;99.90;;;;;;4931342;29;19978;-79
2022/08/21 02:15:29;;;;;;;;;;;16.20;99.90;;;;;;4926342;29;19930;-79
2022/08/21 02:17:57;;;;;;;;;;;16.20;99.90;;;;;;4932923;29;20279;-81
2022/08/21 02:20:24;;;;;;;;;;;16.10;99.90;;;;;;4925002;29;19915;-80
2022/08/21 02:22:50;;;;;;;;;;;16.20;99.90;;;;;;4920087;29;20013;-79
2022/08/21 02:25:17;;;;;;;;;;;16.20;99.90;;;;;;4923232;29;19967;-80
2022/08/21 02:27:43;;;;;;;;;;;16.10;99.90;;;;;;4932701;29;19910;-80
2022/08/21 02:30:17;;;;;;;;;;;16.10;99.90;;;;;;4920984;29;19915;-80
2022/08/21 02:32:43;;;;;;;;;;;16.10;99.90;;;;;;4942126;29;19983;-81
2022/08/21 02:35:09;;;;;;;;;;;16.20;99.90;;;;;;4936062;29;19923;-79
2022/08/21 02:37:42;;;;;;;;;;;16.10;99.90;;;;;;4936571;29;19915;-80
2022/08/21 02:40:09;;;;;;;;;;;16.20;99.90;;;;;;4925999;29;19911;-79
2022/08/21 02:42:35;;;;;;;;;;;16.20;99.90;;;;;;4936982;29;19943;-79
2022/08/21 02:45:00;;;;;;;;;;;16.10;99.90;;;;;;4936918;29;19925;-77
2022/08/21 02:47:26;;;;;;;;;;;16.10;99.90;;;;;;4935281;29;19914;-80
2022/08/21 02:49:52;;;;;;;;;;;16.10;99.90;;;;;;4932341;29;19945;-80
2022/08/21 02:52:17;;;;;;;;;;;16.10;99.90;;;;;;4929901;29;19926;-80
2022/08/21 02:54:43;;;;;;;;;;;16.10;99.90;;;;;;4937121;29;19914;-77
2022/08/21 02:57:09;;;;;;;;;;;16.10;99.90;;;;;;4934407;29;19923;-79
2022/08/21 02:59:34;;;;;;;;;;;16.10;99.90;;;;;;4928676;29;19911;-80
2022/08/21 03:02:00;;;;;;;;;;;16.10;99.90;;;;;;4932495;29;19915;-81
2022/08/21 03:04:26;;;;;;;;;;;16.10;99.90;;;;;;4923135;29;19926;-80
2022/08/21 03:06:52;;;;;;;;;;;16.10;99.90;;;;;;4931416;29;19918;-79
2022/08/21 03:09:17;;;;;;;;;;;16.10;99.90;;;;;;4923833;29;20457;-79
2022/08/21 03:11:43;;;;;;;;;;;16.10;99.90;;;;;;4930533;29;19910;-80
2022/08/21 03:14:09;;;;;;;;;;;16.10;99.90;;;;;;4926097;29;19926;-79
2022/08/21 03:16:34;;;;;;;;;;;16.10;99.90;;;;;;4930119;29;19979;-80
2022/08/21 03:19:00;;;;;;;;;;;16.00;99.90;;;;;;4917438;29;19919;-79
2022/08/21 03:21:27;;;;;;;;;;;16.00;99.90;;;;;;4928158;29;19918;-80
2022/08/21 03:23:53;;;;;;;;;;;16.10;99.90;;;;;;4924193;29;19915;-80
2022/08/21 03:26:19;;;;;;;;;;;16.10;99.90;;;;;;4929147;29;19969;-80
2022/08/21 03:28:45;;;;;;;;;;;16.00;99.90;;;;;;4921914;29;20335;-80
2022/08/21 03:31:10;;;;;;;;;;;16.00;99.90;;;;;;4927100;29;19922;-80
2022/08/21 03:33:36;;;;;;;;;;;16.00;99.90;;;;;;4924437;29;19944;-80
2022/08/21 03:36:06;;;;;;;;;;;16.00;99.90;;;;;;4917888;29;19911;-80
2022/08/21 03:38:33;;;;;;;;;;;16.00;99.90;;;;;;4914930;29;19946;-78
2022/08/21 03:40:59;;;;;;;;;;;16.00;99.90;;;;;;4926566;29;20438;-79
2022/08/21 03:43:26;;;;;;;;;;;16.00;99.90;;;;;;4922397;29;19918;-80
2022/08/21 03:45:52;;;;;;;;;;;16.00;99.90;;;;;;4924161;29;20336;-80
2022/08/21 03:48:17;;;;;;;;;;;16.00;99.90;;;;;;4926007;29;19911;-81
2022/08/21 03:50:46;;;;;;;;;;;16.00;99.90;;;;;;4928789;29;19917;-81
2022/08/21 03:53:12;;;;;;;;;;;16.00;99.90;;;;;;4928183;29;19962;-80
2022/08/21 03:55:38;;;;;;;;;;;16.00;99.90;;;;;;4924836;29;19918;-81
2022/08/21 03:58:04;;;;;;;;;;;16.00;99.90;;;;;;4925180;29;19914;-80
2022/08/21 04:00:29;;;;;;;;;;;16.00;99.90;;;;;;4920605;29;20013;-80
2022/08/21 04:02:55;;;;;;;;;;;16.00;99.90;;;;;;4910259;29;19975;-80
2022/08/21 04:05:26;;;;;;;;;;;16.00;99.90;;;;;;4932795;29;19926;-80
2022/08/21 04:07:59;;;;;;;;;;;16.00;99.90;;;;;;4932564;29;19910;-81
2022/08/21 04:10:27;;;;;;;;;;;16.00;99.90;;;;;;4925852;29;20449;-81
2022/08/21 04:12:53;;;;;;;;;;;16.00;99.90;;;;;;4923356;29;20294;-80
2022/08/21 04:15:21;;;;;;;;;;;16.00;99.90;;;;;;4915612;29;20544;-81
2022/08/21 04:17:46;;;;;;;;;;;16.00;99.90;;;;;;4930649;29;19911;-81
2022/08/21 04:20:12;;;;;;;;;;;16.00;99.90;;;;;;4925878;29;20017;-80
2022/08/21 04:22:38;;;;;;;;;;;16.00;99.90;;;;;;4914017;29;19966;-80
2022/08/21 04:25:04;;;;;;;;;;;16.00;99.90;;;;;;4929836;29;20429;-81
2022/08/21 04:27:30;;;;;;;;;;;16.00;99.90;;;;;;4932756;29;19965;-79
2022/08/21 04:29:56;;;;;;;;;;;16.00;99.90;;;;;;4925910;29;19919;-81
2022/08/21 04:32:24;;;;;;;;;;;16.00;99.90;;;;;;4931740;29;20315;-78
2022/08/21 04:34:50;;;;;;;;;;;16.00;99.90;;;;;;4924762;29;20447;-80
2022/08/21 04:37:16;;;;;;;;;;;16.00;99.90;;;;;;4934091;29;19911;-80
2022/08/21 04:39:42;;;;;;;;;;;16.00;99.90;;;;;;4920110;29;19911;-81
2022/08/21 04:42:08;;;;;;;;;;;16.00;99.90;;;;;;4932223;29;19943;-81
2022/08/21 04:44:34;;;;;;;;;;;16.00;99.90;;;;;;4928309;29;20009;-79
2022/08/21 04:46:59;;;;;;;;;;;16.00;99.90;;;;;;4916791;29;19934;-80
2022/08/21 04:49:25;;;;;;;;;;;16.10;99.90;;;;;;4929414;29;19915;-81
2022/08/21 04:51:51;;;;;;;;;;;16.10;99.90;;;;;;4926579;29;19919;-79
2022/08/21 04:54:18;;;;;;;;;;;16.10;99.90;;;;;;4930988;29;20302;-80
2022/08/21 04:56:45;;;;;;;;;;;16.10;99.90;;;;;;4931767;29;19922;-80
2022/08/21 04:59:22;;;;;;;;;;;16.10;99.90;;;;;;4933084;29;19957;-79
2022/08/21 05:01:48;;;;;;;;;;;16.10;99.90;;;;;;4953908;28;19918;-81
2022/08/21 05:04:17;;;;;;;;;;;16.10;99.90;;;;;;4946329;29;19911;-81
2022/08/21 05:06:45;;;;;;;;;;;16.10;99.90;;;;;;4921972;29;19940;-80
2022/08/21 05:09:12;;;;;;;;;;;16.10;99.90;;;;;;4941701;29;19983;-80
2022/08/21 05:11:38;;;;;;;;;;;16.10;99.90;;;;;;4942971;29;19974;-79
2022/08/21 05:14:04;;;;;;;;;;;16.10;99.90;;;;;;4942303;29;19915;-80
2022/08/21 05:16:29;;;;;;;;;;;16.10;99.90;;;;;;4931674;29;19953;-80
2022/08/21 05:18:55;;;;;;;;;;;16.10;99.90;;;;;;4934261;29;19930;-79
2022/08/21 05:21:21;;;;;;;;;;;16.10;99.90;;;;;;4925104;29;20017;-81
2022/08/21 05:23:46;;;;;;;;;;;16.10;99.90;;;;;;4924944;29;19921;-81
2022/08/21 05:26:12;;;;;;;;;;;16.10;99.90;;;;;;4925642;29;19958;-80
2022/08/21 05:28:37;;;;;;;;;;;16.00;99.90;;;;;;4931716;29;19918;-79
2022/08/21 05:31:03;;;;;;;;;;;16.10;99.90;;;;;;4934146;29;19988;-79
2022/08/21 05:33:29;;;;;;;;;;;16.10;99.90;;;;;;4929319;29;19983;-81
2022/08/21 05:35:58;;;;;;;;;;;16.10;99.90;;;;;;4929071;29;20017;-79
2022/08/21 05:38:26;;;;;;;;;;;16.10;99.90;;;;;;4932525;29;20099;-79
2022/08/21 05:40:52;;;;;;;;;;;16.10;99.90;;;;;;4922737;29;19921;-80
2022/08/21 05:43:18;;;;;;;;;;;16.10;99.90;;;;;;4919785;29;20260;-80
2022/08/21 05:45:44;;;;;;;;;;;16.10;99.90;;;;;;4936159;29;19973;-81
2022/08/21 05:48:11;;;;;;;;;;;16.10;99.90;;;;;;4925977;29;19918;-81
2022/08/21 05:50:37;;;;;;;;;;;16.10;99.90;;;;;;4922428;29;19911;-80
2022/08/21 05:53:04;;;;;;;;;;;16.10;99.90;;;;;;4932745;29;19919;-81
2022/08/21 05:55:29;;;;;;;;;;;16.10;99.90;;;;;;4928161;29;19914;-81
2022/08/21 05:57:55;;;;;;;;;;;16.20;99.90;;;;;;4938409;29;19970;-80
2022/08/21 06:00:22;;;;;;;;;;;16.10;99.90;;;;;;4936365;29;19941;-80
2022/08/21 06:02:50;;;;;;;;;;;16.10;99.90;;;;;;4937492;29;19914;-80
2022/08/21 06:05:16;;;;;;;;;;;16.20;99.90;;;;;;4915468;29;19914;-81
2022/08/21 06:07:42;;;;;;;;;;;16.20;99.90;;;;;;4932823;29;19911;-80
2022/08/21 06:10:07;;;;;;;;;;;16.20;99.90;;;;;;4917750;29;19915;-80
2022/08/21 06:12:33;;;;;;;;;;;16.20;99.90;;;;;;4937061;29;19962;-80
2022/08/21 06:14:59;;;;;;;;;;;16.20;99.90;;;;;;4926381;29;20009;-80
2022/08/21 06:17:24;;;;;;;;;;;16.20;99.90;;;;;;4923749;29;19915;-80
2022/08/21 06:19:51;;;;;;;;;;;16.20;99.90;;;;;;4910870;29;19915;-80
2022/08/21 06:22:17;;;;;;;;;;;16.20;99.90;;;;;;4933924;29;19915;-78
2022/08/21 06:24:43;;;;;;;;;;;16.10;99.90;;;;;;4924607;29;20042;-79
2022/08/21 06:27:09;;;;;;;;;;;16.10;99.90;;;;;;4932748;29;19915;-81
2022/08/21 06:29:34;;;;;;;;;;;16.10;99.90;;;;;;4928834;29;19917;-79
2022/08/21 06:32:00;;;;;;;;;;;16.10;99.90;;;;;;4931802;29;20358;-80
2022/08/21 06:34:26;;;;;;;;;;;16.20;99.90;;;;;;4930703;29;19974;-80
2022/08/21 06:36:52;;;;;;;;;;;16.20;99.90;;;;;;4932493;29;19962;-80
2022/08/21 06:39:17;;;;;;;;;;;16.20;99.90;;;;;;4936167;29;19911;-80
2022/08/21 06:41:43;;;;;;;;;;;16.20;99.90;;;;;;4935778;29;19910;-81
2022/08/21 06:44:09;;;;;;;;;;;16.30;99.90;;;;;;4933334;29;20007;-80
2022/08/21 06:46:35;;;;;;;;;;;16.20;99.90;;;;;;4932532;29;19915;-80
2022/08/21 06:49:01;;;;;;;;;;;16.30;99.90;;;;;;4938201;29;19911;-81
2022/08/21 06:51:28;;;;;;;;;;;16.30;99.90;;;;;;4929045;29;19918;-81
2022/08/21 06:53:54;;;;;;;;;;;16.40;99.90;;;;;;4941898;29;19903;-80
2022/08/21 06:56:20;;;;;;;;;;;16.40;99.90;;;;;;4945594;29;19915;-80
2022/08/21 06:58:46;;;;;;;;;;;16.40;99.90;;;;;;4943920;29;19899;-81
2022/08/21 07:03:48;;;;;;;;;;;16.50;99.90;;;;;;4962912;28;19977;-85
2022/08/21 07:06:13;;;;;;;;;;;16.50;99.90;;;;;;4947167;28;19926;-86
2022/08/21 07:08:39;;;;;;;;;;;16.50;99.90;;;;;;4936095;29;19945;-85
2022/08/21 07:11:14;;;;;;;;;;;16.60;99.90;;;;;;4940048;29;19921;-87
2022/08/21 07:13:40;;;;;;;;;;;16.60;99.90;;;;;;4972045;28;19945;-85
2022/08/21 07:16:05;;;;;;;;;;;16.70;99.90;;;;;;4940046;28;19950;-86
2022/08/21 07:18:31;;;;;;;;;;;16.60;99.90;;;;;;4943600;28;19925;-84
2022/08/21 07:20:57;;;;;;;;;;;16.70;99.90;;;;;;4953226;28;19917;-84
2022/08/21 07:23:27;;;;;;;;;;;16.70;99.90;;;;;;4967138;28;19914;-84
2022/08/21 07:25:53;;;;;;;;;;;16.80;99.90;;;;;;4956532;28;19914;-84
2022/08/21 07:28:19;;;;;;;;;;;16.90;99.90;;;;;;4971734;28;20390;-85
2022/08/21 07:30:45;;;;;;;;;;;17.00;99.90;;;;;;4937667;28;20387;-85
2022/08/21 07:33:11;;;;;;;;;;;17.10;99.90;;;;;;4956182;28;20030;-85
2022/08/21 07:35:37;;;;;;;;;;;17.20;99.90;;;;;;4969925;28;19997;-86
2022/08/21 07:38:03;;;;;;;;;;;17.30;99.90;;;;;;4955088;28;19917;-84
2022/08/21 07:40:29;;;;;;;;;;;17.50;99.90;;;;;;4954536;28;19918;-85
2022/08/21 07:42:55;;;;;;;;;;;17.70;99.90;;;;;;4952115;28;19910;-85
2022/08/21 07:45:21;;;;;;;;;;;18.10;99.90;;;;;;4941213;28;19924;-85
2022/08/21 07:47:48;;;;;;;;;;;18.70;99.90;;;;;;4955026;28;19910;-84
2022/08/21 07:50:14;;;;;;;;;;;19.20;99.90;;;;;;4954735;28;19949;-85
2022/08/21 07:52:40;;;;;;;;;;;19.60;99.90;;;;;;4954165;28;19938;-85
2022/08/21 07:55:06;;;;;;;;;;;19.90;99.90;;;;;;4953881;28;19913;-85
2022/08/21 07:57:32;;;;;;;;;;;20.20;99.90;;;;;;4956030;28;20412;-85
2022/08/21 07:59:58;;;;;;;;;;;20.40;99.90;;;;;;4968913;28;19913;-85
2022/08/21 08:02:25;;;;;;;;;;;20.50;99.90;;;;;;4934869;28;20349;-85
2022/08/21 08:04:51;;;;;;;;;;;20.40;99.90;;;;;;4947878;28;19918;-84
2022/08/21 08:07:17;;;;;;;;;;;20.20;99.90;;;;;;4965695;28;19993;-84
2022/08/21 08:09:43;;;;;;;;;;;20.00;99.90;;;;;;4931002;29;19945;-85
2022/08/21 08:12:09;;;;;;;;;;;19.90;99.90;;;;;;4966747;28;19906;-85
2022/08/21 08:14:35;;;;;;;;;;;19.80;99.90;;;;;;4968600;28;20334;-84
2022/08/21 08:17:02;;;;;;;;;;;19.90;99.90;;;;;;4959825;28;19918;-85
2022/08/21 08:19:27;;;;;;;;;;;19.90;99.90;;;;;;4935346;29;19915;-85
2022/08/21 08:21:53;;;;;;;;;;;20.00;99.90;;;;;;4948296;28;20777;-85
2022/08/21 08:24:19;;;;;;;;;;;20.00;99.90;;;;;;4953431;28;19920;-85
2022/08/21 08:26:45;;;;;;;;;;;20.00;99.90;;;;;;4944032;29;19960;-85
2022/08/21 08:29:10;;;;;;;;;;;19.90;99.90;;;;;;4957670;28;20417;-86
2022/08/21 08:31:36;;;;;;;;;;;19.90;99.90;;;;;;4971270;28;19913;-85
2022/08/21 08:34:02;;;;;;;;;;;19.90;99.90;;;;;;4953375;28;19922;-85
2022/08/21 08:36:34;;;;;;;;;;;19.90;99.90;;;;;;4952693;28;20306;-86
2022/08/21 08:39:03;;;;;;;;;;;20.00;99.90;;;;;;4953584;28;20020;-85
2022/08/21 08:41:29;;;;;;;;;;;20.10;99.90;;;;;;4957229;28;20353;-86
2022/08/21 08:43:57;;;;;;;;;;;20.30;99.90;;;;;;4934268;29;19911;-87
2022/08/21 08:46:30;;;;;;;;;;;20.40;99.90;;;;;;4943565;28;19954;-86
2022/08/21 08:48:59;;;;;;;;;;;20.50;99.90;;;;;;4951827;28;20003;-86
2022/08/21 08:51:41;;;;;;;;;;;20.60;99.90;;;;;;4956764;28;19918;-86
2022/08/21 08:54:16;;;;;;;;;;;20.70;99.90;;;;;;4934148;29;19918;-86
2022/08/21 08:56:42;;;;;;;;;;;20.80;99.90;;;;;;4949043;28;20001;-86
2022/08/21 08:59:27;;;;;;;;;;;20.70;99.90;;;;;;4953303;28;20012;-86
2022/08/21 09:01:53;;;;;;;;;;;20.60;99.90;;;;;;4952902;28;20378;-86
2022/08/21 09:04:23;;;;;;;;;;;20.50;99.90;;;;;;4949599;28;20042;-85
2022/08/21 09:07:08;;;;;;;;;;;20.40;99.90;;;;;;4960018;28;19922;-87
2022/08/21 09:09:40;;;;;;;;;;;20.30;99.90;;;;;;4945712;28;19941;-86
2022/08/21 09:12:10;;;;;;;;;;;20.30;99.90;;;;;;4953138;28;19997;-86
2022/08/21 09:14:54;;;;;;;;;;;20.40;99.90;;;;;;4952595;28;19910;-87
2022/08/21 09:17:31;;;;;;;;;;;20.50;99.90;;;;;;4937413;29;20264;-87
2022/08/21 09:19:59;;;;;;;;;;;20.50;99.90;;;;;;4970278;28;19910;-85
2022/08/21 09:22:39;;;;;;;;;;;20.50;99.90;;;;;;4972370;28;20341;-85
2022/08/21 09:25:08;;;;;;;;;;;20.50;99.90;;;;;;4949489;28;19914;-86
2022/08/21 09:27:35;;;;;;;;;;;20.50;99.90;;;;;;4953339;28;19906;-86
2022/08/21 09:30:01;;;;;;;;;;;20.40;99.90;;;;;;4955658;28;20612;-84
2022/08/21 09:32:28;;;;;;;;;;;20.40;99.90;;;;;;4954116;28;19914;-85
2022/08/21 09:34:55;;;;;;;;;;;20.30;99.90;;;;;;4937531;28;20278;-85
2022/08/21 09:37:21;;;;;;;;;;;20.30;99.90;;;;;;4964133;28;19925;-86
2022/08/21 09:39:46;;;;;;;;;;;20.40;99.90;;;;;;4953654;28;19906;-86
2022/08/21 09:42:20;;;;;;;;;;;20.40;99.90;;;;;;4947059;29;19914;-85
2022/08/21 09:44:46;;;;;;;;;;;20.40;99.90;;;;;;4936575;29;19937;-86
2022/08/21 09:47:12;;;;;;;;;;;20.40;99.90;;;;;;4952896;28;19914;-85
2022/08/21 09:49:39;;;;;;;;;;;20.40;99.90;;;;;;4955285;28;20013;-86
2022/08/21 09:52:13;;;;;;;;;;;20.50;99.90;;;;;;4954924;28;19914;-85
2022/08/21 09:54:40;;;;;;;;;;;20.50;99.90;;;;;;4955872;28;19914;-86
2022/08/21 09:59:53;;;;;;;;;;;20.40;99.90;;;;;;4972588;28;20429;-85
2022/08/21 10:02:29;;;;;;;;;;;20.40;99.90;;;;;;4967962;28;19976;-85
2022/08/21 10:04:56;;;;;;;;;;;20.40;99.90;;;;;;4938350;28;20311;-85
2022/08/21 10:07:23;;;;;;;;;;;20.50;99.90;;;;;;4966002;28;20316;-85
2022/08/21 10:10:07;;;;;;;;;;;20.40;99.90;;;;;;4953052;28;20404;-85
2022/08/21 10:13:02;;;;;;;;;;;20.50;99.90;;;;;;4955486;28;19910;-85
2022/08/21 10:15:47;;;;;;;;;;;20.50;99.90;;;;;;4954789;28;19917;-85
2022/08/21 10:18:27;;;;;;;;;;;20.60;99.90;;;;;;4972085;28;19917;-85
2022/08/21 10:21:04;;;;;;;;;;;20.70;99.90;;;;;;4955789;28;19938;-85
2022/08/21 10:23:36;;;;;;;;;;;20.90;99.90;;;;;;4955889;28;19936;-86
2022/08/21 10:26:06;;;;;;;;;;;21.00;99.90;;;;;;4952968;28;19972;-85
2022/08/21 10:28:58;;;;;;;;;;;21.10;99.90;;;;;;4946020;28;20326;-85
2022/08/21 10:31:43;;;;;;;;;;;21.20;99.90;;;;;;4943853;29;20389;-85
2022/08/21 10:34:27;;;;;;;;;;;21.30;99.90;;;;;;4950010;28;19942;-85
2022/08/21 10:37:02;;;;;;;;;;;21.30;99.90;;;;;;4955530;28;19953;-86
2022/08/21 10:39:32;;;;;;;;;;;21.40;99.90;;;;;;4962983;28;19949;-85
2022/08/21 10:41:58;;;;;;;;;;;21.30;99.90;;;;;;4971000;28;19917;-86
2022/08/21 10:44:28;;;;;;;;;;;21.30;99.90;;;;;;4951209;28;20005;-85
2022/08/21 10:46:59;;;;;;;;;;;21.30;99.90;;;;;;4964555;28;19945;-85
2022/08/21 10:49:43;;;;;;;;;;;21.40;99.90;;;;;;4941977;28;19938;-85
2022/08/21 10:52:12;;;;;;;;;;;21.40;99.90;;;;;;4947800;28;20414;-85
2022/08/21 10:54:44;;;;;;;;;;;21.50;99.90;;;;;;4943175;28;19910;-86
2022/08/21 10:57:26;;;;;;;;;;;21.50;99.90;;;;;;4946676;28;19992;-85
2022/08/21 11:00:03;;;;;;;;;;;21.50;99.90;;;;;;4950837;28;20578;-85
2022/08/21 11:02:35;;;;;;;;;;;21.50;99.90;;;;;;4966023;28;20394;-87
2022/08/21 11:05:16;;;;;;;;;;;21.50;99.90;;;;;;4953532;28;19925;-85
2022/08/21 11:07:54;;;;;;;;;;;21.50;99.90;;;;;;4952250;28;19910;-85
2022/08/21 11:10:19;;;;;;;;;;;21.50;99.90;;;;;;4953797;28;19910;-86
2022/08/21 11:12:51;;;;;;;;;;;21.50;99.90;;;;;;4954593;28;19910;-85
2022/08/21 11:15:17;;;;;;;;;;;21.60;99.90;;;;;;4954388;28;19910;-85
2022/08/21 11:18:12;;;;;;;;;;;21.60;99.90;;;;;;4955239;28;20282;-85
2022/08/21 11:20:42;;;;;;;;;;;21.80;99.90;;;;;;4965724;28;19950;-85
2022/08/21 11:23:14;;;;;;;;;;;21.90;99.90;;;;;;4971038;28;19918;-87
2022/08/21 11:25:42;;;;;;;;;;;21.90;99.90;;;;;;4953504;28;19921;-85
2022/08/21 11:28:22;;;;;;;;;;;22.00;99.90;;;;;;4951374;28;19910;-85
2022/08/21 11:30:57;;;;;;;;;;;22.00;99.90;;;;;;4956603;28;19910;-86
2022/08/21 11:33:35;;;;;;;;;;;22.10;99.90;;;;;;4954339;28;19910;-86
2022/08/21 11:36:07;;;;;;;;;;;22.10;99.90;;;;;;4947522;28;19917;-85
2022/08/21 11:38:40;;;;;;;;;;;22.10;99.90;;;;;;4954857;28;19968;-85
2022/08/21 11:41:25;;;;;;;;;;;22.20;99.90;;;;;;4949796;28;19911;-85
2022/08/21 11:43:50;;;;;;;;;;;22.20;99.90;;;;;;4970612;28;19910;-86
2022/08/21 11:46:22;;;;;;;;;;;22.30;99.90;;;;;;4969703;28;19961;-85
2022/08/21 11:48:54;;;;;;;;;;;22.40;99.90;;;;;;4954162;28;19910;-85
2022/08/21 11:51:27;;;;;;;;;;;22.50;99.90;;;;;;4951407;28;19957;-86
2022/08/21 11:54:01;;;;;;;;;;;22.60;99.90;;;;;;4954405;28;19960;-86
2022/08/21 11:56:32;;;;;;;;;;;22.60;99.90;;;;;;4954201;28;19936;-85
2022/08/21 11:59:04;;;;;;;;;;;22.70;99.90;;;;;;4939694;28;19910;-86
2022/08/21 12:01:40;;;;;;;;;;;22.70;99.90;;;;;;5086247;28;19913;-80
2022/08/21 12:04:08;;;;;;;;;;;22.70;99.90;;;;;;5084981;28;19925;-80
2022/08/21 12:06:35;;;;;;;;;;;22.70;99.90;;;;;;5082863;28;19913;-80
2022/08/21 12:09:04;;;;;;;;;;;22.80;99.90;;;;;;5081330;28;19917;-79
2022/08/21 12:11:30;;;;;;;;;;;22.90;99.90;;;;;;5079055;28;19956;-79
2022/08/21 12:14:04;;;;;;;;;;;23.00;99.90;;;;;;5084617;28;19924;-80
2022/08/21 12:16:35;;;;;;;;;;;23.10;99.90;;;;;;5078739;28;19917;-79
2022/08/21 12:19:06;;;;;;;;;;;23.10;99.90;;;;;;5046618;28;19940;-79
2022/08/21 12:21:32;;;;;;;;;;;23.20;99.90;;;;;;5068456;28;19920;-79
2022/08/21 12:24:03;;;;;;;;;;;23.30;99.90;;;;;;5071463;28;20307;-79
2022/08/21 12:26:30;;;;;;;;;;;23.30;99.90;;;;;;5074358;28;20404;-79
2022/08/21 12:29:23;;;;;;;;;;;23.30;99.90;;;;;;5075472;28;19959;-79
2022/08/21 12:31:55;;;;;;;;;;;23.40;99.90;;;;;;5065460;28;19948;-79
2022/08/21 12:34:23;;;;;;;;;;;23.40;99.90;;;;;;5071452;28;19913;-80
2022/08/21 12:36:53;;;;;;;;;;;23.50;99.90;;;;;;5077694;28;19913;-79
2022/08/21 12:39:23;;;;;;;;;;;23.60;99.90;;;;;;5071949;28;19920;-78
2022/08/21 12:42:21;;;;;;;;;;;23.60;99.90;;;;;;5068392;28;19912;-78
2022/08/21 12:44:49;;;;;;;;;;;23.70;99.90;;;;;;5077083;28;19920;-78
2022/08/21 12:47:15;;;;;;;;;;;23.80;99.90;;;;;;5074900;28;19919;-77
2022/08/21 12:49:50;;;;;;;;;;;24.00;99.90;;;;;;5078626;28;19916;-78
2022/08/21 12:52:20;;;;;;;;;;;24.10;99.90;;;;;;5072508;28;19963;-79
2022/08/21 12:54:46;;;;;;;;;;;24.30;99.90;;;;;;5075167;28;20273;-79
2022/08/21 12:57:22;;;;;;;;;;;24.40;99.90;;;;;;5069655;28;19919;-79
2022/08/21 12:59:52;;;;;;;;;;;24.60;99.90;;;;;;5082081;28;20070;-78
2022/08/21 13:02:20;;;;;;;;;;;24.70;99.90;;;;;;5077150;28;19912;-78
2022/08/21 13:04:46;;;;;;;;;;;24.70;99.90;;;;;;5077257;28;19912;-80
2022/08/21 13:07:15;;;;;;;;;;;24.80;99.90;;;;;;5070496;28;19993;-78
2022/08/21 13:09:49;;;;;;;;;;;24.80;99.90;;;;;;5085763;28;19919;-80
2022/08/21 13:12:16;;;;;;;;;;;24.90;99.90;;;;;;5075446;28;19917;-79
2022/08/21 13:14:43;;;;;;;;;;;25.00;99.90;;;;;;5068148;28;19939;-77
2022/08/21 13:17:10;;;;;;;;;;;25.00;99.90;;;;;;5066612;28;19912;-77
2022/08/21 13:19:35;;;;;;;;;;;25.00;99.90;;;;;;5075586;28;19963;-79
2022/08/21 13:22:01;;;;;;;;;;;24.80;99.90;;;;;;5076934;28;19917;-79
2022/08/21 13:24:31;;;;;;;;;;;24.60;99.90;;;;;;5061237;28;19987;-79
2022/08/21 13:26:57;;;;;;;;;;;24.40;99.90;;;;;;5048920;28;20599;-79
2022/08/21 13:29:26;;;;;;;;;;;24.20;99.90;;;;;;5062908;28;20008;-79
2022/08/21 15:41:28;;;;;;;;;;;23.10;93.90;;;;;;5755982;23;19932;-87
2022/08/21 15:43:54;;;;;;;;;;;23.10;93.90;;;;;;5000941;28;20455;-87
2022/08/21 15:46:20;;;;;;;;;;;23.10;95.70;;;;;;4952132;28;19918;-83
2022/08/21 15:48:46;;;;;;;;;;;23.00;95.80;;;;;;4971696;28;19918;-84
2022/08/21 15:51:12;;;;;;;;;;;22.90;93.90;;;;;;4982901;28;20363;-83
2022/08/21 15:53:39;;;;;;;;;;;22.90;94.90;;;;;;4986261;28;19965;-84
2022/08/21 15:56:10;;;;;;;;;;;22.90;96.10;;;;;;4988626;28;20279;-83
2022/08/21 15:58:36;;;;;;;;;;;22.90;94.00;;;;;;4988498;28;19917;-83
2022/08/21 16:01:02;;;;;;;;;;;22.90;95.50;;;;;;4984246;28;19922;-83
2022/08/21 16:03:28;;;;;;;;;;;22.90;94.80;;;;;;4971714;28;20029;-82
2022/08/21 16:05:56;;;;;;;;;;;22.80;94.40;;;;;;4998517;28;19914;-83
2022/08/21 16:08:22;;;;;;;;;;;22.90;93.50;;;;;;4992976;28;19918;-84
2022/08/21 16:10:48;;;;;;;;;;;22.90;92.50;;;;;;4987163;28;19984;-83
2022/08/21 16:13:25;;;;;;;;;;;23.00;92.60;;;;;;5008932;28;19921;-83
2022/08/21 16:15:51;;;;;;;;;;;23.00;93.20;;;;;;5001975;28;20000;-84
2022/08/21 16:18:17;;;;;;;;;;;23.00;94.80;;;;;;4985967;28;20333;-83
2022/08/21 16:20:43;;;;;;;;;;;22.90;93.80;;;;;;4990247;28;19918;-83
2022/08/21 16:23:09;;;;;;;;;;;22.90;93.80;;;;;;4972643;28;20018;-83
2022/08/21 16:25:36;;;;;;;;;;;22.90;95.10;;;;;;4998401;28;19918;-83
2022/08/21 16:28:02;;;;;;;;;;;22.80;95.00;;;;;;4991694;28;19968;-84
2022/08/21 16:30:29;;;;;;;;;;;22.80;93.40;;;;;;4981117;28;19949;-83
2022/08/21 16:32:55;;;;;;;;;;;22.70;93.90;;;;;;4970257;28;19926;-83
2022/08/21 16:35:21;;;;;;;;;;;22.70;95.00;;;;;;4981933;28;20634;-83
2022/08/21 16:37:47;;;;;;;;;;;22.60;96.40;;;;;;4996708;28;19980;-82